CheckWX is a tool to help pilots better visualize weather data.  It is not intended as a substitute for an official pre-flight weather briefing.

20:41:38 UTC

KCAE METAR
Columbia Metropolitan Airport
Columbia, South Carolina, USA
Current

46 mins ago

KCAE 201956Z 23010G17KT 10SM BKN037 OVC044 13/05 A2979 RMK AO2 RAB37E46 SLP086 P0000 T01330050 $
Observed
Apr-20 @ 19:56 UTC
Wind
  • 230° at 10 KTS
  • Gusting to 17 KTS
Visibility
10 SM
Flight Rules
VFR
Cloud Levels
  • Broken at 3,700' AGL
  • Overcast at 4,400' AGL
Temperature
13°C / 55°F
Dewpoint
C / 41°F
Humidity
59%
Altimeter
29.79" Hg
Pressure
1008.82 hPa
Current Rain
0.01"
Previous

2 hours ago

KCAE 201856Z 23016G22KT 10SM SCT030 BKN050 OVC080 14/04 A2979 RMK AO2 RAE02 SLP088 P0000 T01390044 $
Observed
Apr-20 @ 18:56 UTC
Wind
  • 230° at 16 KTS
  • Gusting to 22 KTS
Visibility
10 SM
Flight Rules
VFR
Cloud Levels
  • Scattered at 3,000' AGL
  • Broken at 5,000' AGL
  • Overcast at 8,000' AGL
Temperature
14°C / 57°F
Dewpoint
C / 39°F
Humidity
51%
Altimeter
29.79" Hg
Pressure
1008.82 hPa
Current Rain
0.01"
Previous

3 hours ago

KCAE 201756Z 23010KT 10SM -RA SCT024 BKN042 OVC050 12/07 A2979 RMK AO2 PK WND 20027/1724 RAB1659 SLP087 P0001 60001 T01170072 10150 20100 53005 $
Observed
Apr-20 @ 17:56 UTC
Wind
  • 230° at 10 KTS
Visibility
10 SM
Flight Rules
VFR
Conditions
Light Rain
Cloud Levels
  • Scattered at 2,400' AGL
  • Broken at 4,200' AGL
  • Overcast at 5,000' AGL
Temperature
12°C / 54°F
Dewpoint
C / 45°F
Humidity
72%
Altimeter
29.79" Hg
Pressure
1008.82 hPa
Current Rain
0.01"